Terminal Aerodrome Forecast
Issued by NWS Denver/Boulder, CO

Home | Current Version | Previous Version | Text Only | Print | Product List | Glossary On
Versions: 1 2 3 4 5 6 7 8 9 10 11 12 13 14 15 16 17 18 19 20 21 22 23 24 25 26 27 28 29 30 31 32 33 34 35 36 37 38 39 40 41 42 43 44 45 46 47 48 49 50
000
FTUS45 KBOU 260058 AAA
TAFDEN
TAF AMD
KDEN 260058Z 2601/2706 01012G22KT 3SM -SN BR OVC009
      TEMPO 2601/2604 1/2SM SN OVC003
     FM260400 01012G20KT 1SM -SN BR OVC007
      TEMPO 2604/2607 1/2SM SN OVC003
     FM260700 36010KT 3SM -SN BR OVC009
      TEMPO 2607/2611 1SM -SN BR OVC006
     FM261100 02008KT 3SM -SN BR OVC009
     FM262200 36007KT 4SM -SN BR OVC013=

USA.gov is the U.S. government's official web portal to all federal, state and local government web resources and services.